createdAt,value
2019-05-21T00:01:56.509Z,97979.89
2019-05-21T00:04:28.842Z,97972.49
2019-05-21T00:07:03.033Z,97979.16
2019-05-21T00:09:35.565Z,97981.10
2019-05-21T00:12:08.296Z,97980.78
2019-05-21T00:14:40.636Z,97986.71
2019-05-21T00:17:13.287Z,97986.71
2019-05-21T00:19:45.606Z,97987.30
2019-05-21T00:22:17.245Z,97987.30
2019-05-21T00:24:49.730Z,97985.02
2019-05-21T00:27:21.405Z,97987.69
2019-05-21T00:31:08.269Z,97987.34
2019-05-21T00:34:55.433Z,97978.48
2019-05-21T00:38:42.791Z,97978.48
2019-05-21T00:42:05.872Z,97982.38
2019-05-21T00:44:45.297Z,97988.23
2019-05-21T00:47:17.641Z,97967.19
2019-05-21T00:49:51.710Z,97967.19
2019-05-21T00:52:25.041Z,97987.37
2019-05-21T00:54:59.290Z,97994.69
2019-05-21T00:57:31.614Z,97978.83
2019-05-21T01:00:08.383Z,97978.83
2019-05-21T01:02:41.299Z,97990.08
2019-05-21T01:05:13.710Z,97983.75
2019-05-21T01:07:46.295Z,97988.41
2019-05-21T01:10:18.659Z,97967.97
2019-05-21T01:12:52.297Z,97967.97
2019-05-21T01:15:24.631Z,97984.69
2019-05-21T01:17:57.285Z,97987.83
2019-05-21T01:20:29.558Z,97986.16
2019-05-21T01:23:02.298Z,97986.16
2019-05-21T01:25:34.596Z,97984.15
2019-05-21T01:29:24.282Z,97980.66
2019-05-21T01:31:56.738Z,97986.70
2019-05-21T01:34:29.501Z,97986.70
2019-05-21T01:37:04.493Z,97989.53
2019-05-21T01:39:36.879Z,98000.16
2019-05-21T01:42:09.302Z,97995.27
2019-05-21T01:44:41.665Z,97983.52
2019-05-21T01:47:14.279Z,97983.52
2019-05-21T01:49:46.607Z,97994.38
2019-05-21T01:52:19.011Z,97994.38
2019-05-21T01:54:51.557Z,97999.35
2019-05-21T01:57:24.004Z,98009.58
2019-05-21T01:59:56.434Z,98012.70
2019-05-21T02:02:29.720Z,98003.52
2019-05-21T02:05:02.277Z,98010.50
2019-05-21T02:07:34.645Z,97999.50
2019-05-21T02:10:09.993Z,97999.50
2019-05-21T02:12:42.302Z,98011.27
2019-05-21T02:15:16.555Z,98004.40
2019-05-21T02:17:48.544Z,98017.57
2019-05-21T02:20:21.002Z,98008.64
2019-05-21T02:22:53.325Z,98009.64
2019-05-21T02:25:25.852Z,98013.98
2019-05-21T02:27:59.883Z,98007.16
2019-05-21T02:30:32.716Z,98015.31
2019-05-21T02:33:04.252Z,98015.72
2019-05-21T02:35:53.027Z,98016.17
2019-05-21T02:38:10.532Z,98017.83
2019-05-21T02:40:42.899Z,98014.94
2019-05-21T02:43:15.291Z,98017.71
2019-05-21T02:45:47.761Z,98019.69
2019-05-21T02:48:20.368Z,98019.69
2019-05-21T02:50:52.896Z,97992.08
2019-05-21T02:53:25.276Z,97992.08
2019-05-21T02:55:57.264Z,98014.72
2019-05-21T02:58:29.830Z,98019.56
2019-05-21T03:01:17.953Z,98012.89
2019-05-21T03:03:49.819Z,98013.80
2019-05-21T03:06:22.285Z,98018.77
2019-05-21T03:09:31.097Z,98019.37
2019-05-21T03:12:03.750Z,98032.34
2019-05-21T03:14:36.287Z,98027.78
2019-05-21T03:17:08.883Z,98028.86
2019-05-21T03:19:41.307Z,98028.66
2019-05-21T03:22:14.708Z,98028.59
2019-05-21T03:24:47.288Z,98028.59
2019-05-21T03:27:19.276Z,98032.52
2019-05-21T03:29:51.241Z,98028.42
2019-05-21T03:32:23.442Z,98028.06
2019-05-21T03:34:55.722Z,98040.34
2019-05-21T03:37:28.283Z,98043.77
2019-05-21T03:40:00.707Z,98020.97
2019-05-21T03:42:33.142Z,98020.97
2019-05-21T03:45:08.055Z,98047.89
2019-05-21T03:47:40.967Z,98047.44
2019-05-21T03:50:13.838Z,98045.34
2019-05-21T03:52:46.357Z,98047.83
2019-05-21T03:55:19.065Z,98055.64
2019-05-21T03:57:51.446Z,98055.64
2019-05-21T04:00:24.289Z,98061.64
2019-05-21T04:02:58.308Z,98068.56
2019-05-21T04:05:31.294Z,98068.56
2019-05-21T04:09:37.578Z,98067.41
2019-05-21T04:12:11.533Z,98073.16
2019-05-21T04:14:45.450Z,98078.12
2019-05-21T04:17:25.466Z,98076.10
2019-05-21T04:19:57.778Z,98078.56
2019-05-21T04:22:30.706Z,98080.20
2019-05-21T04:25:05.657Z,98080.20
2019-05-21T04:27:38.281Z,98082.48
2019-05-21T04:30:11.283Z,98074.23
2019-05-21T04:32:43.867Z,98074.23
2019-05-21T04:35:16.325Z,98084.07
2019-05-21T04:37:48.674Z,98078.90
2019-05-21T04:40:24.264Z,98078.78
2019-05-21T04:42:55.736Z,98080.34
2019-05-21T04:45:28.302Z,98082.44
2019-05-21T04:48:01.297Z,98084.79
2019-05-21T04:50:35.296Z,98081.82
2019-05-21T04:53:07.749Z,98088.58
2019-05-21T04:55:40.286Z,98088.58
2019-05-21T04:58:13.566Z,98085.05
2019-05-21T05:00:46.067Z,98083.17
2019-05-21T05:03:19.495Z,98090.59
2019-05-21T05:05:52.279Z,98091.98
2019-05-21T05:08:26.322Z,98096.19
2019-05-21T05:10:58.770Z,98091.79
2019-05-21T05:13:31.287Z,98091.79
2019-05-21T05:16:04.394Z,98091.66
2019-05-21T05:18:36.636Z,98100.95
2019-05-21T05:21:09.290Z,98103.48
2019-05-21T05:23:41.679Z,98090.48
2019-05-21T05:26:14.297Z,98090.48
2019-05-21T05:28:46.632Z,98107.78
2019-05-21T05:31:21.804Z,98107.78
2019-05-21T05:34:10.748Z,98104.80
2019-05-21T05:36:43.285Z,98109.76
2019-05-21T05:39:15.748Z,98106.53
2019-05-21T05:41:48.286Z,98106.53
2019-05-21T05:44:20.341Z,98115.69
2019-05-21T05:46:52.735Z,98110.15
2019-05-21T05:49:26.698Z,98113.94
2019-05-21T05:51:59.304Z,98112.45
2019-05-21T05:54:31.675Z,98121.91
2019-05-21T05:57:04.304Z,98094.58
2019-05-21T05:59:36.602Z,98100.30
2019-05-21T06:02:09.333Z,98100.30
2019-05-21T06:04:43.224Z,98108.81
2019-05-21T06:07:15.679Z,98108.81
2019-05-21T06:09:49.448Z,98111.56
2019-05-21T06:12:21.786Z,98111.86
2019-05-21T06:14:54.315Z,98107.61
2019-05-21T06:17:27.028Z,98109.83
2019-05-21T06:19:59.606Z,98112.05
2019-05-21T06:22:32.287Z,98119.96
2019-05-21T06:25:05.361Z,98076.10
2019-05-21T06:27:37.122Z,98076.10
2019-05-21T06:30:11.291Z,98110.64
2019-05-21T06:32:43.885Z,98116.84
2019-05-21T06:35:16.624Z,98117.39
2019-05-21T06:37:49.343Z,98117.39
2019-05-21T06:40:23.034Z,98084.38
2019-05-21T06:42:55.507Z,98084.38
2019-05-21T06:45:27.576Z,98112.61
2019-05-21T06:47:59.828Z,98121.31
2019-05-21T06:50:37.271Z,98120.53
2019-05-21T06:53:07.839Z,98117.27
2019-05-21T06:55:40.372Z,98118.08
2019-05-21T06:58:12.779Z,98113.83
2019-05-21T07:00:45.298Z,98113.83
2019-05-21T07:03:17.711Z,98095.83
2019-05-21T07:05:58.722Z,98095.83
2019-05-21T07:08:34.681Z,98120.64
2019-05-21T07:11:02.319Z,98114.84
2019-05-21T07:13:34.815Z,98110.08
2019-05-21T07:16:07.319Z,98120.28
2019-05-21T07:18:42.743Z,98126.23
2019-05-21T07:21:15.302Z,98126.23
2019-05-21T07:23:49.336Z,98098.67
2019-05-21T07:26:22.138Z,98118.53
2019-05-21T07:28:57.366Z,98118.53
2019-05-21T07:31:29.816Z,98133.70
2019-05-21T07:34:02.446Z,98130.86
2019-05-21T07:36:35.052Z,98134.92
2019-05-21T07:39:09.315Z,98137.41
2019-05-21T07:41:44.638Z,98118.45
2019-05-21T07:44:20.292Z,98124.26
2019-05-21T07:46:52.250Z,98129.35
2019-05-21T07:49:26.346Z,98125.88
2019-05-21T07:51:58.649Z,98111.67
2019-05-21T07:54:32.790Z,98111.67
2019-05-21T07:57:05.298Z,98118.87
2019-05-21T07:59:37.631Z,98105.45
2019-05-21T08:02:10.307Z,98105.45
2019-05-21T08:04:42.683Z,98133.72
2019-05-21T08:07:15.285Z,98133.72
2019-05-21T08:09:47.687Z,98116.41
2019-05-21T08:12:37.283Z,98116.41
2019-05-21T08:16:48.878Z,98116.84
2019-05-21T08:19:31.266Z,98126.14
2019-05-21T08:22:06.872Z,98130.88
2019-05-21T08:50:12.278Z,98136.57
2019-05-21T08:52:44.249Z,98115.41
2019-05-21T08:55:16.779Z,98115.41
2019-05-21T08:58:05.689Z,98148.37
2019-05-21T09:00:25.339Z,98157.08
2019-05-21T09:02:57.876Z,98158.75
2019-05-21T09:05:30.292Z,98158.75
2019-05-21T09:08:03.301Z,98160.20
2019-05-21T09:10:37.490Z,98146.42
2019-05-21T09:13:09.871Z,98146.42
2019-05-21T09:15:43.419Z,98169.38
2019-05-21T09:18:15.854Z,98169.38
2019-05-21T09:20:48.368Z,98172.41
2019-05-21T09:23:20.678Z,98156.38
2019-05-21T09:25:53.298Z,98156.38
2019-05-21T09:28:25.687Z,98177.16
2019-05-21T09:31:01.480Z,98177.16
2019-05-21T09:33:33.323Z,98185.22
2019-05-21T09:36:05.829Z,98191.92
2019-05-21T09:38:38.334Z,98191.92
2019-05-21T09:41:11.720Z,98191.17
2019-05-21T09:43:44.232Z,98197.77
2019-05-21T09:46:19.820Z,98199.75
2019-05-21T09:48:52.374Z,98199.75
2019-05-21T09:51:24.375Z,98203.39
2019-05-21T09:53:57.904Z,98210.61
2019-05-21T09:56:35.746Z,98211.52
2019-05-21T09:59:24.617Z,98213.73
2019-05-21T10:02:01.498Z,98220.55
2019-05-21T10:04:33.992Z,98216.31
2019-05-21T10:07:06.539Z,98222.57
2019-05-21T10:09:38.798Z,98219.45
2019-05-21T10:12:11.288Z,98218.82
2019-05-21T10:14:46.278Z,98229.64
2019-05-21T10:17:18.772Z,98229.64
2019-05-21T10:19:51.300Z,98237.94
2019-05-21T10:22:23.246Z,98243.27
2019-05-21T10:24:55.582Z,98245.70
2019-05-21T10:27:28.413Z,98252.46
2019-05-21T10:30:01.046Z,98252.59
2019-05-21T10:32:35.797Z,98263.28
2019-05-21T10:35:09.024Z,98259.09
2019-05-21T10:37:53.996Z,98267.84
2019-05-21T10:40:17.427Z,98274.05
2019-05-21T10:42:49.946Z,98279.17
2019-05-21T10:45:22.589Z,98282.98
2019-05-21T10:47:56.774Z,98291.90
2019-05-21T10:50:30.532Z,98276.34
2019-05-21T10:53:04.397Z,98281.80
2019-05-21T10:55:37.271Z,98289.67
2019-05-21T10:58:09.632Z,98284.23
2019-05-21T11:00:43.312Z,98284.23
2019-05-21T11:03:20.486Z,98297.50
2019-05-21T11:06:09.033Z,98297.50
2019-05-21T11:08:29.487Z,98304.77
2019-05-21T11:11:02.023Z,98305.39
2019-05-21T11:13:34.469Z,98304.38
2019-05-21T11:17:12.612Z,98306.23
2019-05-21T11:19:45.288Z,98313.27
2019-05-21T11:22:17.708Z,98324.39
2019-05-21T11:24:50.282Z,98324.39
2019-05-21T11:27:22.917Z,98328.92
2019-05-21T11:29:55.526Z,98328.92
2019-05-21T11:32:28.298Z,98335.61
2019-05-21T11:35:01.026Z,98331.66
2019-05-21T11:37:34.693Z,98331.66
2019-05-21T11:40:08.904Z,98334.25
2019-05-21T11:42:41.430Z,98332.49
2019-05-21T11:45:31.148Z,98335.91
2019-05-21T11:47:49.408Z,98338.53
2019-05-21T11:50:22.055Z,98346.72
2019-05-21T11:52:54.749Z,98339.34
2019-05-21T11:55:27.327Z,98343.95
2019-05-21T11:57:59.784Z,98354.41
2019-05-21T12:00:34.641Z,98354.41
2019-05-21T12:03:06.406Z,98356.00
2019-05-21T12:05:48.191Z,98326.67
2019-05-21T12:08:20.415Z,98326.67
2019-05-21T12:10:54.311Z,98358.82
2019-05-21T12:13:26.752Z,98359.36
2019-05-21T12:15:59.299Z,98359.36
2019-05-21T12:18:34.563Z,98365.75
2019-05-21T12:21:07.340Z,98367.88
2019-05-21T12:23:39.692Z,98371.88
2019-05-21T12:26:12.637Z,98371.88
2019-05-21T12:28:45.328Z,98372.48
2019-05-21T12:31:17.857Z,98382.16
2019-05-21T12:33:50.300Z,98391.19
2019-05-21T12:36:23.020Z,98353.84
2019-05-21T12:38:55.707Z,98353.84
2019-05-21T12:41:27.701Z,98390.98
2019-05-21T12:44:00.512Z,98399.50
2019-05-21T12:46:33.305Z,98393.25
2019-05-21T12:49:07.681Z,98403.56
2019-05-21T12:51:40.319Z,98403.56
2019-05-21T12:54:13.322Z,98410.83
2019-05-21T12:56:49.179Z,98417.97
2019-05-21T12:59:22.191Z,98417.97
2019-05-21T13:01:54.785Z,98418.47
2019-05-21T13:04:28.836Z,98418.80
2019-05-21T13:07:01.610Z,98411.72
2019-05-21T13:09:35.635Z,98420.10
2019-05-21T13:12:08.535Z,98425.27
2019-05-21T13:14:41.340Z,98432.26
2019-05-21T13:17:14.102Z,98436.55
2019-05-21T13:19:47.290Z,98438.80
2019-05-21T13:22:20.307Z,98444.59
2019-05-21T13:24:53.326Z,98453.52
2019-05-21T13:27:26.302Z,98449.72
2019-05-21T13:29:59.116Z,98441.67
2019-05-21T13:32:34.382Z,98441.67
2019-05-21T13:35:10.334Z,98460.08
2019-05-21T13:37:42.800Z,98473.42
2019-05-21T13:40:16.975Z,98473.42
2019-05-21T13:42:52.288Z,98472.56
2019-05-21T13:45:25.508Z,98479.24
2019-05-21T13:47:58.347Z,98480.42
2019-05-21T13:50:31.057Z,98478.87
2019-05-21T13:55:51.627Z,98481.20
2019-05-21T13:58:24.421Z,98485.48
2019-05-21T14:00:57.290Z,98490.45
2019-05-21T14:03:30.167Z,98483.52
2019-05-21T14:06:04.306Z,98483.52
2019-05-21T14:08:37.418Z,98498.30
2019-05-21T14:11:10.375Z,98507.86
2019-05-21T14:13:44.326Z,98500.56
2019-05-21T14:16:16.346Z,98503.83
2019-05-21T14:18:49.001Z,98482.16
2019-05-21T14:21:22.593Z,98482.16
2019-05-21T14:23:55.278Z,98510.05
2019-05-21T14:26:27.931Z,98517.72
2019-05-21T14:29:00.656Z,98517.72
2019-05-21T14:31:34.380Z,98517.72
2019-05-21T14:34:07.014Z,98525.22
2019-05-21T14:36:39.810Z,98525.22
2019-05-21T14:39:14.050Z,98532.89
2019-05-21T14:41:46.609Z,98539.84
2019-05-21T14:44:20.295Z,98537.11
2019-05-21T14:46:52.971Z,98515.34
2019-05-21T14:49:25.486Z,98515.34
2019-05-21T14:51:58.030Z,98540.91
2019-05-21T14:54:30.351Z,98547.33
2019-05-21T14:58:09.066Z,98547.34
2019-05-21T15:00:41.768Z,98555.70
2019-05-21T15:03:24.871Z,98563.02
2019-05-21T15:05:48.066Z,98561.71
2019-05-21T15:08:19.730Z,98567.39
2019-05-21T15:10:52.368Z,98567.41
2019-05-21T15:13:24.752Z,98565.61
2019-05-21T15:15:58.886Z,98565.61
2019-05-21T15:18:31.608Z,98569.06
2019-05-21T15:21:05.805Z,98573.63
2019-05-21T15:24:21.319Z,98578.95
2019-05-21T15:26:57.618Z,98565.08
2019-05-21T15:29:30.356Z,98565.08
2019-05-21T15:32:03.223Z,98577.92
2019-05-21T15:34:35.344Z,98581.52
2019-05-21T15:37:07.880Z,98582.89
2019-05-21T15:39:40.722Z,98583.55
2019-05-21T15:42:13.447Z,98582.97
2019-05-21T15:44:46.103Z,98592.77
2019-05-21T15:47:18.712Z,98594.79
2019-05-21T15:49:51.291Z,98595.48
2019-05-21T15:52:24.103Z,98578.56
2019-05-21T15:54:56.670Z,98578.56
2019-05-21T15:57:29.314Z,98598.20
2019-05-21T16:00:01.942Z,98611.36
2019-05-21T16:02:36.320Z,98611.36
2019-05-21T16:05:10.551Z,98606.97
2019-05-21T16:07:43.293Z,98606.97
2019-05-21T16:10:16.701Z,98611.33
2019-05-21T16:12:54.281Z,98611.33
2019-05-21T16:15:28.966Z,98613.42
2019-05-21T16:18:02.055Z,98613.42
2019-05-21T16:20:35.699Z,98618.38
2019-05-21T16:23:08.314Z,98618.38
2019-05-21T16:25:41.028Z,98618.88
2019-05-21T16:28:13.670Z,98618.88
2019-05-21T16:30:46.319Z,98623.66
2019-05-21T16:33:18.761Z,98604.23
2019-05-21T16:35:51.371Z,98604.23
2019-05-21T16:38:24.314Z,98625.25
2019-05-21T16:40:57.305Z,98607.70
2019-05-21T16:43:29.698Z,98642.92
2019-05-21T16:46:03.794Z,98642.92
2019-05-21T16:48:36.377Z,98641.00
2019-05-21T16:51:08.747Z,98647.32
2019-05-21T16:53:41.232Z,98643.93
2019-05-21T16:56:13.823Z,98641.68
2019-05-21T16:58:46.294Z,98644.06
2019-05-21T17:01:18.855Z,98626.08
2019-05-21T17:03:59.463Z,98626.08
2019-05-21T17:06:28.637Z,98644.87
2019-05-21T17:09:01.320Z,98653.52
2019-05-21T17:11:34.616Z,98650.46
2019-05-21T17:14:07.358Z,98656.25
2019-05-21T17:16:39.920Z,98665.73
2019-05-21T17:19:12.373Z,98665.73
2019-05-21T17:21:45.302Z,98665.45
2019-05-21T17:24:17.794Z,98653.13
2019-05-21T17:26:50.429Z,98653.13
2019-05-21T17:29:23.056Z,98671.58
2019-05-21T17:31:55.470Z,98673.03
2019-05-21T17:34:28.303Z,98674.84
2019-05-21T17:37:01.055Z,98668.16
2019-05-21T17:39:33.857Z,98677.92
2019-05-21T17:42:15.451Z,98679.55
2019-05-21T17:44:42.541Z,98672.95
2019-05-21T17:47:15.414Z,98686.55
2019-05-21T17:49:48.302Z,98686.91
2019-05-21T17:52:22.393Z,98689.19
2019-05-21T17:54:57.958Z,98689.19
2019-05-21T17:57:31.662Z,98692.64
2019-05-21T18:00:06.298Z,98689.94
2019-05-21T18:02:39.750Z,98691.25
2019-05-21T18:05:13.307Z,98690.94
2019-05-21T18:07:46.349Z,98713.80
2019-05-21T18:10:19.327Z,98679.88
2019-05-21T18:12:51.904Z,98695.66
2019-05-21T18:15:24.651Z,98695.66
2019-05-21T18:17:57.691Z,98715.38
2019-05-21T18:20:30.728Z,98718.03
2019-05-21T18:23:04.599Z,98717.20
2019-05-21T18:25:38.655Z,98724.73
2019-05-21T18:28:11.305Z,98729.22
2019-05-21T18:30:44.101Z,98734.63
2019-05-21T18:33:16.727Z,98721.67
2019-05-21T18:35:49.309Z,98721.67
2019-05-21T18:38:21.782Z,98748.94
2019-05-21T18:40:55.877Z,98748.94
2019-05-21T18:43:28.518Z,98748.88
2019-05-21T18:46:01.315Z,98750.92
2019-05-21T18:48:33.839Z,98753.83
2019-05-21T18:51:06.391Z,98756.27
2019-05-21T18:53:38.805Z,98759.20
2019-05-21T18:56:11.345Z,98770.34
2019-05-21T18:58:44.323Z,98774.85
2019-05-21T19:01:17.626Z,98762.94
2019-05-21T19:03:50.643Z,98771.87
2019-05-21T19:06:23.325Z,98773.71
2019-05-21T19:08:55.781Z,98782.83
2019-05-21T19:11:28.627Z,98782.83
2019-05-21T19:14:02.738Z,98787.22
2019-05-21T19:16:35.497Z,98789.08
2019-05-21T19:19:11.070Z,98801.59
2019-05-21T19:21:43.643Z,98801.59
2019-05-21T19:24:16.302Z,98807.34
2019-05-21T19:26:50.373Z,98799.89
2019-05-21T19:29:22.846Z,98799.89
2019-05-21T19:31:57.765Z,98812.98
2019-05-21T19:34:30.303Z,98810.52
2019-05-21T19:37:03.644Z,98829.91
2019-05-21T19:39:38.521Z,98829.91
2019-05-21T19:42:12.315Z,98831.24
2019-05-21T19:44:44.153Z,98833.77
2019-05-21T19:47:16.569Z,98833.77
2019-05-21T19:49:49.035Z,98837.66
2019-05-21T19:52:21.598Z,98841.06
2019-05-21T19:54:54.268Z,98844.64
2019-05-21T19:57:27.473Z,98841.94
2019-05-21T19:59:59.899Z,98841.94
2019-05-21T20:02:32.415Z,98851.11
2019-05-21T20:05:08.758Z,98851.33
2019-05-21T20:07:42.595Z,98859.55
2019-05-21T20:10:18.311Z,98857.36
2019-05-21T20:12:51.296Z,98863.02
2019-05-21T20:15:23.798Z,98867.14
2019-05-21T20:18:07.164Z,98867.14
2019-05-21T20:20:30.483Z,98868.90
2019-05-21T20:23:09.485Z,98870.47
2019-05-21T20:25:56.159Z,98871.22
2019-05-21T20:28:18.308Z,98870.29
2019-05-21T20:30:51.323Z,98868.23
2019-05-21T20:33:24.896Z,98875.59
2019-05-21T20:35:58.516Z,98871.98
2019-05-21T20:38:32.292Z,98877.50
2019-05-21T20:41:07.888Z,98873.31
2019-05-21T20:43:42.130Z,98873.52
2019-05-21T20:46:15.872Z,98880.96
2019-05-21T20:48:49.000Z,98881.77
2019-05-21T20:51:21.388Z,98887.66
2019-05-21T20:53:54.228Z,98869.50
2019-05-21T20:56:27.305Z,98869.50
2019-05-21T20:59:00.208Z,98887.63
2019-05-21T21:01:33.294Z,98887.63
2019-05-21T21:04:06.073Z,98883.66
2019-05-21T21:06:39.748Z,98881.25
2019-05-21T21:09:13.882Z,98889.94
2019-05-21T21:11:46.659Z,98887.21
2019-05-21T21:14:24.550Z,98882.73
2019-05-21T21:16:58.072Z,98892.63
2019-05-21T21:19:33.313Z,98894.92
2019-05-21T21:22:05.897Z,98895.58
2019-05-21T21:24:40.349Z,98894.17
2019-05-21T21:27:14.837Z,98893.67
2019-05-21T21:29:47.419Z,98894.50
2019-05-21T21:32:20.215Z,98897.31
2019-05-21T21:34:52.655Z,98894.66
2019-05-21T21:37:25.299Z,98902.92
2019-05-21T21:39:57.842Z,98904.27
2019-05-21T21:42:31.300Z,98904.27
2019-05-21T21:45:03.848Z,98905.80
2019-05-21T21:47:36.834Z,98910.80
2019-05-21T21:50:10.974Z,98916.97
2019-05-21T21:52:46.855Z,98908.59
2019-05-21T21:55:19.526Z,98911.66
2019-05-21T21:57:51.885Z,98915.75
2019-05-21T22:01:07.529Z,98906.59
2019-05-21T22:03:42.315Z,98913.91
2019-05-21T22:06:20.684Z,98909.92
2019-05-21T22:08:54.229Z,98909.92
2019-05-21T22:11:27.630Z,98909.18
2019-05-21T22:14:00.322Z,98909.18
2019-05-21T22:16:36.323Z,98915.55
2019-05-21T22:19:11.657Z,98925.19
2019-05-21T22:21:45.308Z,98925.37
2019-05-21T22:24:18.483Z,98917.98
2019-05-21T22:26:51.309Z,98917.98
2019-05-21T22:29:23.804Z,98918.97
2019-05-21T22:31:57.555Z,98918.97
2019-05-21T22:34:30.225Z,98918.18
2019-05-21T22:37:02.720Z,98916.04
2019-05-21T22:39:38.300Z,98916.80
2019-05-21T22:42:12.295Z,98915.34
2019-05-21T22:44:45.304Z,98919.33
2019-05-21T22:47:17.669Z,98922.55
2019-05-21T22:49:50.297Z,98917.59
2019-05-21T22:52:22.773Z,98921.03
2019-05-21T22:54:55.336Z,98921.03
2019-05-21T22:57:28.293Z,98931.80
2019-05-21T23:00:00.643Z,98919.86
2019-05-21T23:02:35.022Z,98919.86
2019-05-21T23:05:10.628Z,98929.45
2019-05-21T23:07:46.370Z,98925.27
2019-05-21T23:10:20.312Z,98930.44
2019-05-21T23:12:53.029Z,98928.36
2019-05-21T23:15:25.909Z,98923.36
2019-05-21T23:18:17.592Z,98932.29
2019-05-21T23:21:03.091Z,98931.58
2019-05-21T23:23:38.365Z,98937.31
2019-05-21T23:26:10.846Z,98937.31
2019-05-21T23:28:47.353Z,98934.87
2019-05-21T23:31:20.302Z,98935.76
2019-05-21T23:33:54.309Z,98921.56
2019-05-21T23:36:27.673Z,98941.25
2019-05-21T23:39:00.445Z,98941.25
2019-05-21T23:41:35.318Z,98945.61
2019-05-21T23:44:07.332Z,98932.67
2019-05-21T23:46:40.673Z,98931.08
2019-05-21T23:49:13.533Z,98940.70
2019-05-21T23:51:46.448Z,98932.67
2019-05-21T23:54:19.299Z,98938.39
2019-05-21T23:56:53.046Z,98935.08
2019-05-21T23:59:25.771Z,98935.08
